Time,TemperatureF,DewpointF,PressureIn,WindDirection,WindDirectionDegrees,WindSpeedMPH,WindSpeedGustMPH,Humidity,HourlyPrecipIn,Conditions,Clouds,dailyrainin,SolarRadiationWatts/m^2,SoftwareType,DateUTC
2013-01-15 00:12:00,12.0,9.0,-100.00,SE,127,1.0,2.0,88,0.00,,,0.00,1.000000,,2013-01-15 05:12:00,
2013-01-15 00:22:00,12.0,9.0,-100.00,SE,127,1.0,2.0,88,0.00,,,0.00,1.000000,,2013-01-15 05:22:00,
2013-01-15 00:33:00,12.0,9.0,-100.00,SE,127,1.0,2.0,88,0.00,,,0.00,1.000000,,2013-01-15 05:33:00,
2013-01-15 00:42:00,12.0,9.0,-100.00,SE,127,1.0,2.0,88,0.00,,,0.00,1.000000,,2013-01-15 05:42:00,
2013-01-15 01:12:00,14.0,10.0,-100.00,WSW,237,3.0,6.0,84,0.00,,,0.00,1.000000,,2013-01-15 06:12:00,
2013-01-15 01:22:00,14.0,10.0,-100.00,WSW,237,3.0,6.0,84,0.00,,,0.00,1.000000,,2013-01-15 06:22:00,
2013-01-15 01:33:00,14.0,10.0,-100.00,WSW,237,3.0,6.0,84,0.00,,,0.00,1.000000,,2013-01-15 06:33:00,
2013-01-15 01:43:00,14.0,10.0,-100.00,WSW,237,3.0,6.0,84,0.00,,,0.00,1.000000,,2013-01-15 06:43:00,
2013-01-15 02:12:00,16.0,11.0,-100.00,WSW,242,4.0,7.0,80,0.00,,,0.00,1.000000,,2013-01-15 07:12:00,
2013-01-15 02:22:00,16.0,11.0,-100.00,WSW,242,4.0,7.0,80,0.00,,,0.00,1.000000,,2013-01-15 07:22:00,
2013-01-15 02:33:00,16.0,11.0,-100.00,WSW,242,4.0,7.0,80,0.00,,,0.00,1.000000,,2013-01-15 07:33:00,
2013-01-15 02:42:00,16.0,11.0,-100.00,WSW,242,4.0,7.0,80,0.00,,,0.00,1.000000,,2013-01-15 07:42:00,
2013-01-15 03:12:00,15.0,11.0,-100.00,West,269,5.0,6.0,82,0.00,,,0.00,1.000000,,2013-01-15 08:12:00,
2013-01-15 03:22:00,15.0,11.0,-100.00,West,269,5.0,6.0,82,0.00,,,0.00,1.000000,,2013-01-15 08:22:00,
2013-01-15 03:33:00,15.0,11.0,-100.00,West,269,5.0,6.0,82,0.00,,,0.00,1.000000,,2013-01-15 08:33:00,
2013-01-15 03:43:00,15.0,11.0,-100.00,West,269,5.0,6.0,82,0.00,,,0.00,1.000000,,2013-01-15 08:43:00,
2013-01-15 04:12:00,15.0,11.0,-100.00,WSW,258,5.0,7.0,83,0.00,,,0.00,0.000000,,2013-01-15 09:12:00,
2013-01-15 04:22:00,15.0,11.0,-100.00,WSW,258,5.0,7.0,83,0.00,,,0.00,0.000000,,2013-01-15 09:22:00,
2013-01-15 04:33:00,15.0,11.0,-100.00,WSW,258,5.0,7.0,83,0.00,,,0.00,0.000000,,2013-01-15 09:33:00,
2013-01-15 04:42:00,15.0,11.0,-100.00,WSW,258,5.0,7.0,83,0.00,,,0.00,0.000000,,2013-01-15 09:42:00,
2013-01-15 05:12:00,15.0,11.0,-100.00,WSW,241,5.0,6.0,84,0.00,,,0.00,0.000000,,2013-01-15 10:12:00,
2013-01-15 05:22:00,15.0,11.0,-100.00,WSW,241,5.0,6.0,84,0.00,,,0.00,0.000000,,2013-01-15 10:22:00,
2013-01-15 05:32:00,15.0,11.0,-100.00,WSW,241,5.0,6.0,84,0.00,,,0.00,0.000000,,2013-01-15 10:32:00,
2013-01-15 05:42:00,15.0,11.0,-100.00,WSW,241,5.0,6.0,84,0.00,,,0.00,0.000000,,2013-01-15 10:42:00,
2013-01-15 06:12:00,15.0,11.0,-100.00,WSW,250,5.0,7.0,84,0.00,,,0.00,0.000000,,2013-01-15 11:12:00,
2013-01-15 06:23:00,15.0,11.0,-100.00,WSW,250,5.0,7.0,84,0.00,,,0.00,0.000000,,2013-01-15 11:23:00,
2013-01-15 06:33:00,15.0,11.0,-100.00,WSW,250,5.0,7.0,84,0.00,,,0.00,0.000000,,2013-01-15 11:33:00,
2013-01-15 06:43:00,15.0,11.0,-100.00,WSW,250,5.0,7.0,84,0.00,,,0.00,0.000000,,2013-01-15 11:43:00,
2013-01-15 07:12:00,16.0,11.0,-100.00,West,266,6.0,9.0,81,0.00,,,0.00,0.000000,,2013-01-15 12:12:00,
2013-01-15 07:22:00,16.0,11.0,-100.00,West,266,6.0,9.0,81,0.00,,,0.00,0.000000,,2013-01-15 12:22:00,
2013-01-15 07:33:00,16.0,11.0,-100.00,West,266,6.0,9.0,81,0.00,,,0.00,0.000000,,2013-01-15 12:33:00,
2013-01-15 07:43:00,16.0,11.0,-100.00,West,266,6.0,9.0,81,0.00,,,0.00,0.000000,,2013-01-15 12:43:00,
2013-01-15 08:13:00,14.0,9.0,-100.00,SW,236,3.0,7.0,80,0.00,,,0.00,1.000000,,2013-01-15 13:13:00,
2013-01-15 08:23:00,14.0,9.0,-100.00,SW,236,3.0,7.0,80,0.00,,,0.00,1.000000,,2013-01-15 13:23:00,
2013-01-15 08:33:00,14.0,9.0,-100.00,SW,236,3.0,7.0,80,0.00,,,0.00,1.000000,,2013-01-15 13:33:00,
2013-01-15 08:43:00,14.0,9.0,-100.00,SW,236,3.0,7.0,80,0.00,,,0.00,1.000000,,2013-01-15 13:43:00,
2013-01-15 09:13:00,12.0,9.0,-100.00,WSW,253,2.0,4.0,86,0.00,,,0.00,10.000000,,2013-01-15 14:13:00,
2013-01-15 09:23:00,12.0,9.0,-100.00,WSW,253,2.0,4.0,86,0.00,,,0.00,10.000000,,2013-01-15 14:23:00,
2013-01-15 09:33:00,12.0,9.0,-100.00,WSW,253,2.0,4.0,86,0.00,,,0.00,10.000000,,2013-01-15 14:33:00,
2013-01-15 09:43:00,12.0,9.0,-100.00,WSW,253,2.0,4.0,86,0.00,,,0.00,10.000000,,2013-01-15 14:43:00,
2013-01-15 10:13:00,19.0,12.0,-100.00,SW,236,4.0,7.0,73,0.00,,,0.00,129.000000,,2013-01-15 15:13:00,
2013-01-15 10:23:00,19.0,12.0,-100.00,SW,236,4.0,7.0,73,0.00,,,0.00,129.000000,,2013-01-15 15:23:00,
2013-01-15 10:33:00,19.0,12.0,-100.00,SW,236,4.0,7.0,73,0.00,,,0.00,129.000000,,2013-01-15 15:33:00,
2013-01-15 10:43:00,19.0,12.0,-100.00,SW,236,4.0,7.0,73,0.00,,,0.00,129.000000,,2013-01-15 15:43:00,
2013-01-15 11:12:00,21.0,11.0,-100.00,West,276,6.0,13.0,64,0.00,,,0.00,262.000000,,2013-01-15 16:12:00,
2013-01-15 11:23:00,21.0,11.0,-100.00,West,276,6.0,13.0,64,0.00,,,0.00,262.000000,,2013-01-15 16:23:00,
2013-01-15 11:33:00,21.0,11.0,-100.00,West,276,6.0,13.0,64,0.00,,,0.00,262.000000,,2013-01-15 16:33:00,
2013-01-15 11:43:00,21.0,11.0,-100.00,West,276,6.0,13.0,64,0.00,,,0.00,262.000000,,2013-01-15 16:43:00,
2013-01-15 12:13:00,23.0,10.0,-100.00,WSW,253,5.0,12.0,56,0.00,,,0.00,357.000000,,2013-01-15 17:13:00,
2013-01-15 12:23:00,23.0,10.0,-100.00,WSW,253,5.0,12.0,56,0.00,,,0.00,357.000000,,2013-01-15 17:23:00,
2013-01-15 12:33:00,23.0,10.0,-100.00,WSW,253,5.0,12.0,56,0.00,,,0.00,357.000000,,2013-01-15 17:33:00,
2013-01-15 12:43:00,23.0,10.0,-100.00,WSW,253,5.0,12.0,56,0.00,,,0.00,357.000000,,2013-01-15 17:43:00,
2013-01-15 13:13:00,26.0,9.0,-100.00,WSW,254,7.0,12.0,47,0.00,,,0.00,414.000000,,2013-01-15 18:13:00,
2013-01-15 13:23:00,26.0,9.0,-100.00,WSW,254,7.0,12.0,47,0.00,,,0.00,414.000000,,2013-01-15 18:23:00,
2013-01-15 13:33:00,26.0,9.0,-100.00,WSW,254,7.0,12.0,47,0.00,,,0.00,414.000000,,2013-01-15 18:33:00,
2013-01-15 13:43:00,26.0,9.0,-100.00,WSW,254,7.0,12.0,47,0.00,,,0.00,414.000000,,2013-01-15 18:43:00,
2013-01-15 14:13:00,29.0,8.0,-100.00,SW,222,8.0,13.0,40,0.00,,,0.00,417.000000,,2013-01-15 19:13:00,
2013-01-15 14:23:00,29.0,8.0,-100.00,SW,222,8.0,13.0,40,0.00,,,0.00,417.000000,,2013-01-15 19:23:00,
2013-01-15 14:33:00,29.0,8.0,-100.00,SW,222,8.0,13.0,40,0.00,,,0.00,417.000000,,2013-01-15 19:33:00,
2013-01-15 14:43:00,29.0,8.0,-100.00,SW,222,8.0,13.0,40,0.00,,,0.00,417.000000,,2013-01-15 19:43:00,
2013-01-15 15:12:00,29.0,9.0,-100.00,SW,221,10.0,13.0,43,0.00,,,0.00,364.000000,,2013-01-15 20:12:00,
2013-01-15 15:23:00,29.0,9.0,-100.00,SW,221,10.0,13.0,43,0.00,,,0.00,364.000000,,2013-01-15 20:23:00,
2013-01-15 15:33:00,29.0,9.0,-100.00,SW,221,10.0,13.0,43,0.00,,,0.00,364.000000,,2013-01-15 20:33:00,
2013-01-15 15:43:00,29.0,9.0,-100.00,SW,221,10.0,13.0,43,0.00,,,0.00,364.000000,,2013-01-15 20:43:00,
2013-01-15 16:13:00,29.0,10.0,-100.00,SW,232,10.0,15.0,45,0.00,,,0.00,272.000000,,2013-01-15 21:13:00,
2013-01-15 16:23:00,29.0,10.0,-100.00,SW,232,10.0,15.0,45,0.00,,,0.00,272.000000,,2013-01-15 21:23:00,
2013-01-15 16:34:00,29.0,10.0,-100.00,SW,232,10.0,15.0,45,0.00,,,0.00,272.000000,,2013-01-15 21:34:00,
2013-01-15 16:43:00,29.0,10.0,-100.00,SW,232,10.0,15.0,45,0.00,,,0.00,272.000000,,2013-01-15 21:43:00,
2013-01-15 17:12:00,27.0,11.0,-100.00,SSW,207,9.0,13.0,51,0.00,,,0.00,122.000000,,2013-01-15 22:12:00,
2013-01-15 17:23:00,27.0,11.0,-100.00,SSW,207,9.0,13.0,51,0.00,,,0.00,122.000000,,2013-01-15 22:23:00,
2013-01-15 17:33:00,27.0,11.0,-100.00,SSW,207,9.0,13.0,51,0.00,,,0.00,122.000000,,2013-01-15 22:33:00,
2013-01-15 17:43:00,27.0,11.0,-100.00,SSW,207,9.0,13.0,51,0.00,,,0.00,122.000000,,2013-01-15 22:43:00,
2013-01-15 18:13:00,24.0,13.0,-100.00,SSW,197,6.0,14.0,62,0.00,,,0.00,17.000000,,2013-01-15 23:13:00,
2013-01-15 18:23:00,24.0,13.0,-100.00,SSW,197,6.0,14.0,62,0.00,,,0.00,17.000000,,2013-01-15 23:23:00,
2013-01-15 18:33:00,24.0,13.0,-100.00,SSW,197,6.0,14.0,62,0.00,,,0.00,17.000000,,2013-01-15 23:33:00,
2013-01-15 18:43:00,24.0,13.0,-100.00,SSW,197,6.0,14.0,62,0.00,,,0.00,17.000000,,2013-01-15 23:43:00,
2013-01-15 19:13:00,22.0,14.0,-100.00,SSW,198,6.0,11.0,70,0.00,,,0.00,1.000000,,2013-01-16 00:13:00,
2013-01-15 19:23:00,22.0,14.0,-100.00,SSW,198,6.0,11.0,70,0.00,,,0.00,1.000000,,2013-01-16 00:23:00,
2013-01-15 19:33:00,22.0,14.0,-100.00,SSW,198,6.0,11.0,70,0.00,,,0.00,1.000000,,2013-01-16 00:33:00,
2013-01-15 19:43:00,22.0,14.0,-100.00,SSW,198,6.0,11.0,70,0.00,,,0.00,1.000000,,2013-01-16 00:43:00,
2013-01-15 20:12:00,20.0,13.0,-100.00,SSW,199,5.0,11.0,75,0.00,,,0.00,0.000000,,2013-01-16 01:12:00,
2013-01-15 20:23:00,20.0,13.0,-100.00,SSW,199,5.0,11.0,75,0.00,,,0.00,0.000000,,2013-01-16 01:23:00,
2013-01-15 20:33:00,20.0,13.0,-100.00,SSW,199,5.0,11.0,75,0.00,,,0.00,0.000000,,2013-01-16 01:33:00,
2013-01-15 20:43:00,20.0,13.0,-100.00,SSW,199,5.0,11.0,75,0.00,,,0.00,0.000000,,2013-01-16 01:43:00,
2013-01-15 21:12:00,19.0,13.0,-100.00,SSW,204,5.0,8.0,78,0.00,,,0.00,0.000000,,2013-01-16 02:12:00,
2013-01-15 21:23:00,19.0,13.0,-100.00,SSW,204,5.0,8.0,78,0.00,,,0.00,0.000000,,2013-01-16 02:23:00,
2013-01-15 21:33:00,19.0,13.0,-100.00,SSW,204,5.0,8.0,78,0.00,,,0.00,0.000000,,2013-01-16 02:33:00,
2013-01-15 21:43:00,19.0,13.0,-100.00,SSW,204,5.0,8.0,78,0.00,,,0.00,0.000000,,2013-01-16 02:43:00,
2013-01-15 22:12:00,19.0,14.0,-100.00,SSW,212,7.0,10.0,80,0.00,,,0.00,0.000000,,2013-01-16 03:12:00,
2013-01-15 22:22:00,19.0,14.0,-100.00,SSW,212,7.0,10.0,80,0.00,,,0.00,0.000000,,2013-01-16 03:22:00,
2013-01-15 22:33:00,19.0,14.0,-100.00,SSW,212,7.0,10.0,80,0.00,,,0.00,0.000000,,2013-01-16 03:33:00,
2013-01-15 22:43:00,19.0,14.0,-100.00,SSW,212,7.0,10.0,80,0.00,,,0.00,0.000000,,2013-01-16 03:43:00,
2013-01-15 23:12:00,18.0,13.0,-100.00,SSW,208,7.0,12.0,81,0.00,,,0.00,1.000000,,2013-01-16 04:12:00,
2013-01-15 23:22:00,18.0,13.0,-100.00,SSW,208,7.0,12.0,81,0.00,,,0.00,1.000000,,2013-01-16 04:22:00,
2013-01-15 23:33:00,18.0,13.0,-100.00,SSW,208,7.0,12.0,81,0.00,,,0.00,1.000000,,2013-01-16 04:33:00,
2013-01-15 23:42:00,18.0,13.0,-100.00,SSW,208,7.0,12.0,81,0.00,,,0.00,1.000000,,2013-01-16 04:42:00,